Time;durP1;ratioP1;P1;durP2;ratioP2;P2;SDS_P1;SDS_P2;PMS_P1;PMS_P2;Temp;Humidity;BMP_temperature;BMP_pressure;BME280_temperature;BME280_humidity;BME280_pressure;Samples;Min_cycle;Max_cycle;Signal;HPM_P1;HPM_P2
2023/12/02 00:02:19;;;;;;;;;;;;;;;14.34;72.20;94619.09;5075866;28;978;-60
2023/12/02 00:04:45;;;;;;;;;;;;;;;14.34;72.49;94624.47;5094096;28;1008;-61
2023/12/02 00:07:11;;;;;;;;;;;;;;;14.34;71.96;94623.63;5093692;28;1913;-60
2023/12/02 00:09:37;;;;;;;;;;;;;;;14.33;72.82;94621.97;5093985;28;1017;-61
2023/12/02 00:12:03;;;;;;;;;;;;;;;14.34;73.77;94626.31;5093931;28;1074;-61
2023/12/02 00:14:30;;;;;;;;;;;;;;;14.33;72.37;94624.66;5093601;28;1033;-61
2023/12/02 00:16:56;;;;;;;;;;;;;;;14.31;73.26;94608.72;5093654;28;1043;-61
2023/12/02 00:19:22;;;;;;;;;;;;;;;14.25;73.29;94612.19;5093850;28;1004;-61
2023/12/02 00:21:49;;;;;;;;;;;;;;;14.27;72.57;94612.00;5093909;28;961;-60
2023/12/02 00:24:15;;;;;;;;;;;;;;;14.24;72.28;94605.97;5093679;28;989;-61
2023/12/02 00:26:40;;;;;;;;;;;;;;;14.30;72.38;94614.28;5093652;28;1918;-62
2023/12/02 00:29:06;;;;;;;;;;;;;;;14.26;72.34;94616.53;5075118;28;965;-62
2023/12/02 00:31:32;;;;;;;;;;;;;;;14.27;72.58;94596.69;5093398;28;965;-61
2023/12/02 00:33:58;;;;;;;;;;;;;;;14.29;71.77;94597.31;5093466;28;1048;-61
2023/12/02 00:36:24;;;;;;;;;;;;;;;14.36;71.18;94591.97;5093590;28;1041;-61
2023/12/02 00:38:51;;;;;;;;;;;;;;;14.39;71.37;94602.34;5093388;28;1095;-61
2023/12/02 00:41:17;;;;;;;;;;;;;;;14.32;72.55;94596.09;5075484;28;998;-61
2023/12/02 00:43:43;;;;;;;;;;;;;;;14.24;72.40;94581.78;5093359;28;1207;-61
2023/12/02 00:46:09;;;;;;;;;;;;;;;14.23;71.48;94569.38;5093190;28;1996;-62
2023/12/02 00:48:35;;;;;;;;;;;;;;;14.23;71.77;94553.25;5093143;28;1085;-63
2023/12/02 00:51:01;;;;;;;;;;;;;;;14.20;71.53;94553.63;5093543;28;965;-61
2023/12/02 00:53:27;;;;;;;;;;;;;;;14.19;71.95;94556.50;5093297;28;980;-62
2023/12/02 00:55:52;;;;;;;;;;;;;;;14.19;72.17;94537.69;5093360;28;1014;-62
2023/12/02 00:58:18;;;;;;;;;;;;;;;14.24;71.61;94554.88;5093068;28;1338;-62
2023/12/02 01:00:44;;;;;;;;;;;;;;;14.24;72.98;94556.75;5093260;28;994;-62
2023/12/02 01:03:10;;;;;;;;;;;;;;;14.20;73.14;94559.00;5093030;28;980;-63
2023/12/02 01:05:36;;;;;;;;;;;;;;;14.18;71.92;94569.13;5093260;28;1997;-63
2023/12/02 01:08:02;;;;;;;;;;;;;;;14.23;72.17;94571.25;5093285;28;1021;-63
2023/12/02 01:10:28;;;;;;;;;;;;;;;14.19;71.67;94581.56;5093040;28;1092;-62
2023/12/02 01:12:54;;;;;;;;;;;;;;;14.17;73.17;94593.50;5093183;28;1025;-62
2023/12/02 01:15:20;;;;;;;;;;;;;;;14.09;73.58;94597.19;5093058;28;966;-63
2023/12/02 01:17:46;;;;;;;;;;;;;;;14.03;73.30;94597.97;5092993;28;1012;-61
2023/12/02 01:20:12;;;;;;;;;;;;;;;14.00;74.64;94604.59;5093139;28;1033;-63
2023/12/02 01:22:38;;;;;;;;;;;;;;;13.93;75.28;94606.38;5075278;28;1077;-63
2023/12/02 01:25:04;;;;;;;;;;;;;;;13.85;75.05;94601.97;5093192;28;973;-62
2023/12/02 01:27:30;;;;;;;;;;;;;;;13.78;74.89;94603.78;5092892;28;1910;-63
2023/12/02 01:29:56;;;;;;;;;;;;;;;13.73;75.08;94603.53;5092943;28;1045;-63
2023/12/02 01:32:22;;;;;;;;;;;;;;;13.69;74.55;94601.44;5092763;28;1037;-63
2023/12/02 01:34:48;;;;;;;;;;;;;;;13.63;76.05;94597.66;5092885;28;1044;-63
2023/12/02 01:37:14;;;;;;;;;;;;;;;13.66;75.63;94598.09;5092931;28;968;-63
2023/12/02 01:39:40;;;;;;;;;;;;;;;13.61;75.05;94588.97;5093518;28;977;-63
2023/12/02 01:42:06;;;;;;;;;;;;;;;13.65;74.78;94595.59;5096730;28;969;-62
2023/12/02 01:44:32;;;;;;;;;;;;;;;13.64;75.50;94588.59;5096485;28;1008;-63
2023/12/02 01:46:59;;;;;;;;;;;;;;;13.64;74.70;94580.53;5096381;28;1909;-62
2023/12/02 01:49:26;;;;;;;;;;;;;;;13.67;74.09;94555.94;5096385;28;901;-62
2023/12/02 01:51:52;;;;;;;;;;;;;;;13.66;74.25;94565.06;5096591;28;1036;-62
2023/12/02 01:54:19;;;;;;;;;;;;;;;13.72;73.71;94560.75;5096357;28;1122;-61
2023/12/02 01:56:48;;;;;;;;;;;;;;;13.77;73.84;94559.16;5096436;28;1016;-62
2023/12/02 01:59:15;;;;;;;;;;;;;;;13.90;73.00;94555.69;5096079;28;1132;-62
2023/12/02 02:01:41;;;;;;;;;;;;;;;13.95;72.10;94555.13;5078204;28;1056;-62
2023/12/02 02:04:07;;;;;;;;;;;;;;;13.92;72.02;94552.81;5096376;28;974;-61
2023/12/02 02:06:33;;;;;;;;;;;;;;;13.98;72.03;94558.25;5096144;28;1983;-61
2023/12/02 02:08:59;;;;;;;;;;;;;;;14.03;72.32;94569.22;5096233;28;1059;-61
2023/12/02 02:11:25;;;;;;;;;;;;;;;14.05;71.61;94560.97;5078173;28;1004;-61
2023/12/02 02:13:51;;;;;;;;;;;;;;;14.12;71.48;94575.28;5096071;28;1052;-61
2023/12/02 02:16:17;;;;;;;;;;;;;;;14.06;71.50;94570.72;5095834;28;1119;-62
2023/12/02 02:18:43;;;;;;;;;;;;;;;14.11;70.77;94564.72;5096143;28;975;-60
2023/12/02 02:21:09;;;;;;;;;;;;;;;14.21;71.19;94578.66;5096106;28;1053;-61
2023/12/02 02:23:35;;;;;;;;;;;;;;;14.21;71.77;94573.28;5095750;28;1107;-61
2023/12/02 02:26:01;;;;;;;;;;;;;;;14.15;71.41;94571.38;5095720;28;1898;-61
2023/12/02 02:28:27;;;;;;;;;;;;;;;14.17;71.56;94559.41;5095701;28;993;-61
2023/12/02 02:30:54;;;;;;;;;;;;;;;14.14;70.63;94559.81;5095658;28;976;-61
2023/12/02 02:33:20;;;;;;;;;;;;;;;14.21;70.11;94551.78;5095596;28;1096;-60
2023/12/02 02:35:47;;;;;;;;;;;;;;;14.35;68.83;94547.31;5095784;28;1053;-60
2023/12/02 02:38:13;;;;;;;;;;;;;;;14.35;69.30;94563.44;5095623;28;933;-61
2023/12/02 02:40:40;;;;;;;;;;;;;;;14.38;69.90;94568.41;5095583;28;999;-61
2023/12/02 02:43:06;;;;;;;;;;;;;;;14.36;69.19;94570.47;5095438;28;1033;-61
2023/12/02 02:45:32;;;;;;;;;;;;;;;14.34;69.30;94564.44;5095307;28;1047;-61
2023/12/02 02:47:58;;;;;;;;;;;;;;;14.29;69.31;94556.16;5095562;28;1973;-61
2023/12/02 02:50:24;;;;;;;;;;;;;;;14.31;68.33;94543.34;5095270;28;1064;-61
2023/12/02 02:52:50;;;;;;;;;;;;;;;14.39;69.02;94529.72;5076802;28;1036;-61
2023/12/02 02:55:16;;;;;;;;;;;;;;;14.36;68.56;94533.66;5079889;28;1252;-60
2023/12/02 02:57:42;;;;;;;;;;;;;;;14.42;68.47;94548.16;5075048;28;1052;-61
2023/12/02 03:00:09;;;;;;;;;;;;;;;14.49;68.09;94554.38;5074700;28;1275;-60
2023/12/02 03:02:36;;;;;;;;;;;;;;;14.52;67.91;94548.63;5073705;28;1087;-60
2023/12/02 03:05:02;;;;;;;;;;;;;;;14.54;68.11;94551.13;5074849;28;1028;-60
2023/12/02 03:07:28;;;;;;;;;;;;;;;14.50;68.37;94542.63;5074770;28;1979;-59
2023/12/02 03:09:55;;;;;;;;;;;;;;;14.47;68.70;94537.63;5074763;28;1036;-59
2023/12/02 03:12:20;;;;;;;;;;;;;;;14.37;68.83;94540.69;5074619;28;1048;-58
2023/12/02 03:14:46;;;;;;;;;;;;;;;14.36;69.17;94536.34;5074599;28;1019;-59
2023/12/02 03:17:13;;;;;;;;;;;;;;;14.32;68.98;94532.38;5074723;28;1046;-60
2023/12/02 03:19:40;;;;;;;;;;;;;;;14.32;68.81;94527.00;5074731;28;1049;-60
2023/12/02 03:22:06;;;;;;;;;;;;;;;14.30;68.78;94507.56;5074528;28;1072;-61
2023/12/02 03:24:32;;;;;;;;;;;;;;;14.33;68.61;94511.72;5074446;28;1059;-61
2023/12/02 03:26:58;;;;;;;;;;;;;;;14.41;68.56;94527.66;5074281;28;1917;-62
2023/12/02 03:29:24;;;;;;;;;;;;;;;14.41;68.97;94546.50;5074129;28;1049;-61
2023/12/02 03:31:50;;;;;;;;;;;;;;;14.37;68.92;94556.00;5074464;28;1035;-63
2023/12/02 03:34:16;;;;;;;;;;;;;;;14.32;69.52;94550.38;5074305;28;1044;-61
2023/12/02 03:36:42;;;;;;;;;;;;;;;14.34;69.24;94537.56;5074270;28;969;-58
2023/12/02 03:39:12;;;;;;;;;;;;;;;14.27;69.59;94531.34;5074251;28;965;-58
2023/12/02 03:41:40;;;;;;;;;;;;;;;14.27;70.87;94536.72;5072939;28;1064;-59
2023/12/02 03:44:06;;;;;;;;;;;;;;;14.28;72.03;94541.88;5073968;28;1041;-58
2023/12/02 03:46:34;;;;;;;;;;;;;;;14.27;71.45;94536.72;5074009;28;1918;-60
2023/12/02 03:49:00;;;;;;;;;;;;;;;14.18;72.08;94531.47;5073987;28;1033;-58
2023/12/02 03:51:26;;;;;;;;;;;;;;;14.12;70.69;94523.41;5073767;28;964;-58
2023/12/02 03:53:52;;;;;;;;;;;;;;;14.09;72.85;94516.53;5077236;28;1295;-59
2023/12/02 03:56:18;;;;;;;;;;;;;;;14.03;72.35;94533.47;5094063;28;1029;-60
2023/12/02 03:58:45;;;;;;;;;;;;;;;14.01;73.55;94525.59;5093769;28;1309;-59
2023/12/02 04:01:12;;;;;;;;;;;;;;;13.94;75.39;94534.66;5093883;28;1057;-59
2023/12/02 04:03:38;;;;;;;;;;;;;;;13.91;74.96;94527.00;5093346;28;968;-59
2023/12/02 04:06:05;;;;;;;;;;;;;;;13.89;71.59;94531.72;5093957;28;1917;-59
2023/12/02 04:08:31;;;;;;;;;;;;;;;13.95;72.08;94539.00;5093906;28;984;-59
2023/12/02 04:10:57;;;;;;;;;;;;;;;13.96;71.04;94543.34;5093908;28;1175;-58
2023/12/02 04:13:24;;;;;;;;;;;;;;;13.99;72.37;94551.03;5093649;28;1048;-59
2023/12/02 04:15:51;;;;;;;;;;;;;;;14.00;72.19;94545.44;5094010;28;1048;-59
2023/12/02 04:18:17;;;;;;;;;;;;;;;14.01;74.02;94538.22;5093794;28;974;-57
2023/12/02 04:20:42;;;;;;;;;;;;;;;13.91;70.88;94527.00;5093818;28;1003;-58
2023/12/02 04:23:08;;;;;;;;;;;;;;;13.88;71.33;94527.38;5093682;28;1036;-58
2023/12/02 04:25:36;;;;;;;;;;;;;;;13.86;71.51;94532.94;5093614;28;1057;-58
2023/12/02 04:28:02;;;;;;;;;;;;;;;13.80;72.74;94521.13;5093514;28;1902;-58
2023/12/02 04:30:28;;;;;;;;;;;;;;;13.82;72.04;94521.75;5093388;28;1096;-57
2023/12/02 04:32:54;;;;;;;;;;;;;;;13.82;74.18;94518.25;5093748;28;1044;-57
2023/12/02 04:35:20;;;;;;;;;;;;;;;13.76;73.56;94514.50;5093418;28;1037;-57
2023/12/02 04:37:46;;;;;;;;;;;;;;;13.76;73.44;94510.97;5093561;28;1048;-57
2023/12/02 04:40:12;;;;;;;;;;;;;;;13.78;72.10;94512.44;5093405;28;1101;-57
2023/12/02 04:42:39;;;;;;;;;;;;;;;13.74;71.60;94511.16;5093290;28;1072;-57
2023/12/02 04:45:06;;;;;;;;;;;;;;;13.81;69.72;94516.56;5093596;28;1040;-60
2023/12/02 04:47:32;;;;;;;;;;;;;;;13.92;72.72;94520.56;5093232;28;1902;-59
2023/12/02 04:49:58;;;;;;;;;;;;;;;13.96;69.79;94522.69;5093493;28;1048;-59
2023/12/02 04:52:24;;;;;;;;;;;;;;;14.13;68.57;94512.41;5075236;28;1070;-59
2023/12/02 04:54:50;;;;;;;;;;;;;;;14.25;67.77;94499.28;5081707;28;1326;-59
2023/12/02 04:57:16;;;;;;;;;;;;;;;14.37;66.35;94502.22;5071872;28;965;-59
2023/12/02 04:59:42;;;;;;;;;;;;;;;14.43;66.22;94496.03;5072883;28;1081;-60
2023/12/02 05:02:08;;;;;;;;;;;;;;;14.41;65.93;94498.09;5073220;28;1061;-58
2023/12/02 05:04:34;;;;;;;;;;;;;;;14.53;65.50;94501.03;5073193;28;1011;-59
2023/12/02 05:07:01;;;;;;;;;;;;;;;14.51;65.19;94503.91;5073062;28;1991;-59
2023/12/02 05:09:27;;;;;;;;;;;;;;;14.52;65.94;94488.63;5072965;28;1092;-59
2023/12/02 05:11:53;;;;;;;;;;;;;;;14.44;65.92;94503.91;5072912;28;1067;-59
2023/12/02 05:14:19;;;;;;;;;;;;;;;14.49;65.41;94507.84;5073104;28;1020;-59
2023/12/02 05:16:45;;;;;;;;;;;;;;;14.47;65.59;94513.41;5076903;28;1037;-59
2023/12/02 05:19:11;;;;;;;;;;;;;;;14.48;65.17;94509.72;5076877;28;981;-59
2023/12/02 05:21:37;;;;;;;;;;;;;;;14.53;64.54;94506.41;5076917;28;1044;-59
2023/12/02 05:24:03;;;;;;;;;;;;;;;14.56;64.39;94504.16;5076862;28;1052;-59
2023/12/02 05:26:29;;;;;;;;;;;;;;;14.62;64.53;94487.22;5076506;28;1985;-59
2023/12/02 05:28:55;;;;;;;;;;;;;;;14.73;63.51;94466.16;5076885;28;1044;-59
2023/12/02 05:31:21;;;;;;;;;;;;;;;14.79;63.81;94459.97;5076518;28;1183;-59
2023/12/02 05:33:47;;;;;;;;;;;;;;;14.81;62.93;94464.09;5076753;28;957;-58
2023/12/02 05:36:13;;;;;;;;;;;;;;;14.77;63.51;94457.47;5076400;28;1183;-59
2023/12/02 05:38:39;;;;;;;;;;;;;;;14.67;63.63;94453.53;5076559;28;981;-58
2023/12/02 05:41:06;;;;;;;;;;;;;;;14.64;63.82;94436.75;5076489;28;974;-59
2023/12/02 05:43:32;;;;;;;;;;;;;;;14.59;64.07;94436.53;5076551;28;969;-58
2023/12/02 05:45:58;;;;;;;;;;;;;;;14.55;64.91;94429.88;5076450;28;1906;-57
2023/12/02 05:48:24;;;;;;;;;;;;;;;14.49;65.46;94436.03;5076408;28;1036;-58
2023/12/02 05:50:50;;;;;;;;;;;;;;;14.43;66.57;94448.44;5076383;28;966;-59
2023/12/02 05:53:16;;;;;;;;;;;;;;;14.37;66.23;94451.94;5076186;28;965;-59
2023/12/02 05:55:42;;;;;;;;;;;;;;;14.38;65.81;94455.44;5094943;28;1233;-59
2023/12/02 05:58:08;;;;;;;;;;;;;;;14.36;67.14;94462.91;5096238;28;1104;-59
2023/12/02 06:00:37;;;;;;;;;;;;;;;14.38;65.87;94455.44;5096565;28;953;-58
2023/12/02 06:03:03;;;;;;;;;;;;;;;14.35;66.05;94442.44;5096271;28;1068;-59
2023/12/02 06:05:29;;;;;;;;;;;;;;;14.32;65.62;94440.94;5096242;28;969;-58
2023/12/02 06:07:55;;;;;;;;;;;;;;;14.37;66.27;94459.19;5096225;28;1987;-59
2023/12/02 06:10:21;;;;;;;;;;;;;;;14.37;66.16;94461.88;5096015;28;1008;-59
2023/12/02 06:12:47;;;;;;;;;;;;;;;14.35;66.18;94459.38;5096358;28;992;-59
2023/12/02 06:15:13;;;;;;;;;;;;;;;14.34;66.55;94455.06;5095962;28;1032;-59
2023/12/02 06:17:39;;;;;;;;;;;;;;;14.35;66.26;94455.88;5078182;28;978;-59
2023/12/02 06:20:06;;;;;;;;;;;;;;;14.51;64.42;94460.88;5095930;28;1134;-58
2023/12/02 06:22:32;;;;;;;;;;;;;;;14.59;65.79;94449.97;5095874;28;1056;-59
2023/12/02 06:24:58;;;;;;;;;;;;;;;14.55;65.10;94453.22;5095819;28;969;-58
2023/12/02 06:27:24;;;;;;;;;;;;;;;14.56;64.04;94460.28;5094914;28;1917;-58
2023/12/02 06:29:50;;;;;;;;;;;;;;;14.59;64.22;94452.69;5095738;28;965;-59
2023/12/02 06:32:17;;;;;;;;;;;;;;;14.57;65.04;94449.34;5095637;28;983;-59
2023/12/02 06:34:43;;;;;;;;;;;;;;;14.55;65.16;94451.41;5095616;28;1123;-59
2023/12/02 06:37:09;;;;;;;;;;;;;;;14.52;65.14;94449.09;5095731;28;1057;-58
2023/12/02 06:39:35;;;;;;;;;;;;;;;14.47;66.77;94446.19;5095436;28;1012;-58
2023/12/02 06:42:01;;;;;;;;;;;;;;;14.42;65.20;94459.41;5095716;28;1056;-59
2023/12/02 06:44:27;;;;;;;;;;;;;;;14.44;65.15;94462.75;5095588;28;998;-59
2023/12/02 06:46:53;;;;;;;;;;;;;;;14.50;65.55;94475.38;5077497;28;1981;-58
2023/12/02 06:49:19;;;;;;;;;;;;;;;14.53;64.76;94477.66;5095333;28;984;-59
2023/12/02 06:51:45;;;;;;;;;;;;;;;14.54;64.67;94476.63;5095340;28;1093;-59
2023/12/02 06:54:11;;;;;;;;;;;;;;;14.57;66.17;94486.16;5089018;28;1445;-58
2023/12/02 06:56:37;;;;;;;;;;;;;;;14.59;66.48;94503.78;5075279;28;1047;-58
2023/12/02 06:59:03;;;;;;;;;;;;;;;14.64;63.50;94497.78;5074935;28;1290;-59
2023/12/02 07:01:30;;;;;;;;;;;;;;;14.70;65.11;94514.97;5075016;28;1072;-58
2023/12/02 07:03:56;;;;;;;;;;;;;;;14.66;65.20;94516.41;5074899;28;1040;-59
2023/12/02 07:06:23;;;;;;;;;;;;;;;14.61;67.15;94519.72;5074748;28;2001;-59
2023/12/02 07:08:49;;;;;;;;;;;;;;;14.57;66.57;94513.91;5074787;28;985;-59
2023/12/02 07:11:15;;;;;;;;;;;;;;;14.53;66.08;94514.47;5074921;28;1144;-59
2023/12/02 07:13:41;;;;;;;;;;;;;;;14.50;67.38;94512.22;5074916;28;1000;-59
2023/12/02 07:16:07;;;;;;;;;;;;;;;14.45;67.16;94510.09;5074864;28;1056;-59
2023/12/02 07:18:33;;;;;;;;;;;;;;;14.50;66.42;94531.03;5074657;28;1029;-59
2023/12/02 07:21:00;;;;;;;;;;;;;;;14.57;63.40;94518.44;5074676;28;985;-58
2023/12/02 07:23:26;;;;;;;;;;;;;;;14.73;63.71;94519.97;5074381;28;1045;-59
2023/12/02 07:25:52;;;;;;;;;;;;;;;14.84;61.73;94497.84;5074390;28;1993;-58
2023/12/02 07:28:18;;;;;;;;;;;;;;;14.90;62.37;94494.34;5074598;28;966;-59
2023/12/02 07:30:44;;;;;;;;;;;;;;;14.90;62.42;94494.34;5074466;28;1039;-59
2023/12/02 07:33:10;;;;;;;;;;;;;;;15.01;62.47;94487.53;5074278;28;1013;-59
2023/12/02 07:35:36;;;;;;;;;;;;;;;15.00;61.92;94486.69;5074308;28;1048;-57
2023/12/02 07:38:02;;;;;;;;;;;;;;;14.97;62.90;94497.88;5074600;28;1001;-58
2023/12/02 07:40:28;;;;;;;;;;;;;;;14.99;61.64;94489.63;5074044;28;1033;-59
2023/12/02 07:42:54;;;;;;;;;;;;;;;15.10;61.71;94496.22;5074314;28;973;-59
2023/12/02 07:45:20;;;;;;;;;;;;;;;15.16;59.58;94490.06;5074137;28;977;-59
2023/12/02 07:47:46;;;;;;;;;;;;;;;15.35;59.71;94500.00;5074130;28;1910;-59
2023/12/02 07:53:34;;;;;;;;;;;;;;;15.39;58.56;94503.94;5074959;28;1342;-59
2023/12/02 07:56:00;;;;;;;;;;;;;;;15.41;57.94;94507.25;5076332;28;1044;-59
2023/12/02 07:58:26;;;;;;;;;;;;;;;15.55;57.96;94499.16;5093914;28;1084;-59
2023/12/02 08:00:52;;;;;;;;;;;;;;;15.54;58.59;94478.66;5094144;28;1059;-59
2023/12/02 08:03:18;;;;;;;;;;;;;;;15.51;57.72;94479.06;5093840;28;1020;-59
2023/12/02 08:05:44;;;;;;;;;;;;;;;15.59;57.48;94477.00;5094167;28;999;-59
2023/12/02 08:08:10;;;;;;;;;;;;;;;15.71;57.35;94468.28;5093916;28;1926;-58
2023/12/02 08:10:36;;;;;;;;;;;;;;;15.76;57.03;94457.72;5093782;28;1100;-58
2023/12/02 08:13:03;;;;;;;;;;;;;;;15.77;57.29;94457.50;5093879;28;1040;-58
2023/12/02 08:15:29;;;;;;;;;;;;;;;15.82;57.82;94459.56;5094232;28;1027;-58
2023/12/02 08:17:55;;;;;;;;;;;;;;;15.72;57.11;94457.28;5093685;28;1083;-58
2023/12/02 08:20:21;;;;;;;;;;;;;;;15.74;56.50;94465.19;5075659;28;1053;-58
2023/12/02 08:22:47;;;;;;;;;;;;;;;15.74;56.30;94465.19;5093681;28;1029;-56
2023/12/02 08:25:13;;;;;;;;;;;;;;;15.83;58.03;94465.81;5093744;28;1071;-56
2023/12/02 08:27:39;;;;;;;;;;;;;;;15.85;56.18;94477.22;5093578;28;1987;-57
2023/12/02 08:30:07;;;;;;;;;;;;;;;15.94;55.67;94486.72;5093640;28;973;-57
2023/12/02 08:32:33;;;;;;;;;;;;;;;16.08;54.70;94501.00;5093424;28;1008;-57
2023/12/02 08:35:00;;;;;;;;;;;;;;;16.26;53.47;94497.63;5093576;28;1037;-58
2023/12/02 08:37:26;;;;;;;;;;;;;;;16.46;53.53;94492.16;5075755;28;982;-58
2023/12/02 08:39:53;;;;;;;;;;;;;;;16.58;53.26;94487.78;5075490;28;990;-58
2023/12/02 08:42:19;;;;;;;;;;;;;;;16.68;51.85;94490.84;5093024;28;1080;-57
2023/12/02 08:44:45;;;;;;;;;;;;;;;16.87;51.19;94493.69;5093405;28;998;-57
2023/12/02 08:47:11;;;;;;;;;;;;;;;17.04;50.81;94499.41;5093018;28;1906;-58
2023/12/02 08:49:37;;;;;;;;;;;;;;;17.23;49.34;94487.63;5092916;28;1155;-57
2023/12/02 08:52:03;;;;;;;;;;;;;;;17.48;49.98;94481.44;5093522;28;957;-57
2023/12/02 08:54:29;;;;;;;;;;;;;;;17.48;49.29;94476.03;5084684;28;1267;-58
2023/12/02 08:56:55;;;;;;;;;;;;;;;17.57;49.55;94472.00;5072688;28;1025;-56
2023/12/02 08:59:21;;;;;;;;;;;;;;;17.68;48.67;94481.25;5072480;28;1089;-57
2023/12/02 09:01:47;;;;;;;;;;;;;;;17.86;48.30;94472.41;5072908;28;1059;-57
2023/12/02 09:04:13;;;;;;;;;;;;;;;17.97;47.04;94485.19;5073140;28;968;-57
2023/12/02 09:06:39;;;;;;;;;;;;;;;18.13;47.60;94481.88;5072834;28;1902;-58
2023/12/02 09:09:07;;;;;;;;;;;;;;;18.51;46.26;94470.00;5073131;28;1040;-57
2023/12/02 09:11:33;;;;;;;;;;;;;;;18.81;45.20;94471.94;5072955;28;954;-57
2023/12/02 09:13:59;;;;;;;;;;;;;;;19.15;45.30;94449.81;5072969;28;982;-57
2023/12/02 09:16:26;;;;;;;;;;;;;;;19.33;44.34;94460.59;5072702;28;973;-57
2023/12/02 09:18:52;;;;;;;;;;;;;;;19.38;43.81;94479.69;5073117;28;974;-57
2023/12/02 09:21:21;;;;;;;;;;;;;;;19.33;44.16;94466.03;5072948;28;959;-57
2023/12/02 09:23:47;;;;;;;;;;;;;;;19.40;43.38;94461.28;5072930;28;996;-57
2023/12/02 09:26:24;;;;;;;;;;;;;;;19.67;42.56;94445.44;5072620;28;1906;-57
2023/12/02 09:28:51;;;;;;;;;;;;;;;19.89;41.52;94453.84;5072823;28;1061;-59
2023/12/02 09:31:17;;;;;;;;;;;;;;;20.26;41.72;94467.16;5072611;28;961;-59
2023/12/02 09:33:45;;;;;;;;;;;;;;;19.87;41.61;94466.00;5073042;28;1040;-59
2023/12/02 09:36:30;;;;;;;;;;;;;;;19.39;42.85;94461.53;5072777;28;975;-59
2023/12/02 09:39:03;;;;;;;;;;;;;;;19.35;42.30;94438.66;5072885;28;1031;-58
2023/12/02 09:41:30;;;;;;;;;;;;;;;19.93;41.63;94437.09;5072527;28;1060;-59
2023/12/02 09:43:55;;;;;;;;;;;;;;;20.65;40.40;94437.56;5072631;28;1115;-57
2023/12/02 09:46:26;;;;;;;;;;;;;;;20.46;41.80;94436.88;5072437;28;1905;-58
2023/12/02 09:48:51;;;;;;;;;;;;;;;20.27;41.36;94438.94;5072635;28;991;-58
2023/12/02 09:51:23;;;;;;;;;;;;;;;19.94;41.53;94423.31;5072603;28;1028;-58
2023/12/02 09:54:01;;;;;;;;;;;;;;;20.76;39.51;94424.22;5074405;28;1283;-58
2023/12/02 09:56:30;;;;;;;;;;;;;;;21.36;39.32;94414.66;5092900;28;1059;-59
2023/12/02 09:59:13;;;;;;;;;;;;;;;21.81;38.64;94416.50;5092512;28;1128;-58
2023/12/02 10:01:45;;;;;;;;;;;;;;;21.91;37.32;94433.00;5093159;28;976;-58
2023/12/02 10:04:30;;;;;;;;;;;;;;;21.39;38.88;94428.59;5096228;28;1040;-59
2023/12/02 10:07:02;;;;;;;;;;;;;;;20.62;39.53;94419.06;5096080;28;1914;-59
2023/12/02 10:09:47;;;;;;;;;;;;;;;20.18;41.18;94415.13;5096256;28;1056;-60
2023/12/02 10:12:22;;;;;;;;;;;;;;;19.65;40.13;94401.47;5096008;28;1016;-59
2023/12/02 10:14:52;;;;;;;;;;;;;;;19.35;40.71;94398.00;5096025;28;1100;-56
2023/12/02 10:17:22;;;;;;;;;;;;;;;19.17;41.64;94397.03;5096221;28;1043;-58
2023/12/02 10:19:51;;;;;;;;;;;;;;;18.99;40.91;94407.94;5095883;28;1028;-58
2023/12/02 10:22:17;;;;;;;;;;;;;;;18.98;40.48;94393.59;5095977;28;1072;-57
2023/12/02 10:24:43;;;;;;;;;;;;;;;18.99;41.35;94389.84;5095655;28;1553;-58
2023/12/02 10:27:13;;;;;;;;;;;;;;;19.01;40.96;94395.84;5077708;28;1906;-57
2023/12/02 10:29:58;;;;;;;;;;;;;;;18.96;40.90;94379.44;5095638;28;986;-58
2023/12/02 10:32:30;;;;;;;;;;;;;;;18.90;41.21;94377.69;5095552;28;1970;-57
2023/12/02 10:35:06;;;;;;;;;;;;;;;18.88;40.90;94372.50;5095755;28;1075;-58
2023/12/02 10:37:36;;;;;;;;;;;;;;;18.90;41.06;94351.41;5095616;28;1036;-57
2023/12/02 10:40:06;;;;;;;;;;;;;;;18.84;41.51;94333.38;5095443;28;986;-57
2023/12/02 10:42:51;;;;;;;;;;;;;;;18.81;41.09;94325.72;5095592;28;965;-57
2023/12/02 10:45:19;;;;;;;;;;;;;;;18.74;41.33;94322.25;5095405;28;1131;-56
2023/12/02 10:47:46;;;;;;;;;;;;;;;18.70;41.24;94326.47;5095474;28;1905;-57
2023/12/02 10:50:13;;;;;;;;;;;;;;;18.67;41.47;94338.63;5095329;28;1028;-58
2023/12/02 10:52:44;;;;;;;;;;;;;;;18.64;41.97;94313.88;5095123;28;1020;-58
2023/12/02 10:55:11;;;;;;;;;;;;;;;18.58;41.50;94315.63;5080704;28;1268;-56
2023/12/02 10:57:38;;;;;;;;;;;;;;;18.57;41.62;94316.69;5075175;28;1080;-56
2023/12/02 11:00:12;;;;;;;;;;;;;;;18.59;41.27;94313.75;5074837;28;1207;-55
2023/12/02 11:02:52;;;;;;;;;;;;;;;18.59;42.33;94308.31;5074993;28;1079;-56
2023/12/02 11:05:18;;;;;;;;;;;;;;;18.61;42.18;94303.50;5075068;28;1078;-56
2023/12/02 11:07:47;;;;;;;;;;;;;;;18.53;43.17;94293.84;5074732;28;1907;-56
2023/12/02 11:10:17;;;;;;;;;;;;;;;18.48;44.33;94294.53;5074760;28;1041;-56
2023/12/02 11:12:50;;;;;;;;;;;;;;;18.45;42.42;94286.06;5074378;28;1032;-56
2023/12/02 11:15:20;;;;;;;;;;;;;;;18.49;41.84;94281.81;5074630;28;1205;-56
2023/12/02 11:17:55;;;;;;;;;;;;;;;18.44;41.24;94278.97;5074601;28;1049;-56
2023/12/02 11:20:24;;;;;;;;;;;;;;;18.51;41.04;94277.81;5074457;28;977;-55
2023/12/02 11:22:50;;;;;;;;;;;;;;;18.45;42.00;94265.22;5074793;28;1020;-56
2023/12/02 11:25:27;;;;;;;;;;;;;;;18.40;41.64;94254.28;5074497;28;1016;-56
2023/12/02 11:28:05;;;;;;;;;;;;;;;18.43;41.77;94261.94;5074330;28;2015;-56
2023/12/02 11:30:41;;;;;;;;;;;;;;;18.43;42.12;94258.41;5074586;28;996;-56
2023/12/02 11:33:13;;;;;;;;;;;;;;;18.49;43.01;94255.56;5074621;28;970;-56
2023/12/02 11:35:47;;;;;;;;;;;;;;;18.54;42.10;94261.13;5074251;28;1108;-56
2023/12/02 11:38:17;;;;;;;;;;;;;;;18.57;41.98;94261.72;5074243;28;1035;-57
2023/12/02 11:40:51;;;;;;;;;;;;;;;18.58;41.12;94263.38;5074124;28;1016;-56
2023/12/02 11:43:20;;;;;;;;;;;;;;;18.69;41.45;94266.09;5074292;28;1161;-57
2023/12/02 11:46:13;;;;;;;;;;;;;;;18.78;41.86;94274.72;5074292;28;972;-57
2023/12/02 11:48:57;;;;;;;;;;;;;;;18.81;41.21;94265.34;5072248;28;1146;-56
2023/12/02 11:51:33;;;;;;;;;;;;;;;18.77;41.77;94273.06;5073897;28;1083;-57
2023/12/02 11:54:18;;;;;;;;;;;;;;;18.70;41.23;94256.94;5078505;28;1267;-56
2023/12/02 11:56:51;;;;;;;;;;;;;;;18.69;41.32;94255.28;5094091;28;1071;-56
2023/12/02 11:59:17;;;;;;;;;;;;;;;18.75;40.73;94258.13;5093932;28;1235;-56
2023/12/02 12:02:11;;;;;;;;;;;;;;;18.76;40.94;94262.47;5093973;28;1189;-56
2023/12/02 12:04:55;;;;;;;;;;;;;;;18.76;41.26;94243.50;5094209;28;1037;-56
2023/12/02 12:07:30;;;;;;;;;;;;;;;18.76;40.19;94249.72;5093896;28;1906;-57
2023/12/02 12:09:55;;;;;;;;;;;;;;;18.82;41.58;94234.47;5093899;28;1047;-58
2023/12/02 12:12:22;;;;;;;;;;;;;;;18.95;41.13;94230.72;5094050;28;1016;-57
2023/12/02 12:14:50;;;;;;;;;;;;;;;19.18;40.24;94228.00;5094036;28;1048;-57
2023/12/02 12:17:16;;;;;;;;;;;;;;;19.36;40.09;94231.63;5093885;28;1008;-57
2023/12/02 12:19:42;;;;;;;;;;;;;;;19.38;39.05;94237.63;5075706;28;1084;-56
2023/12/02 12:22:08;;;;;;;;;;;;;;;19.57;39.27;94231.00;5093742;28;1044;-57
2023/12/02 12:24:34;;;;;;;;;;;;;;;19.54;40.00;94233.34;5092795;28;1018;-57
2023/12/02 12:27:00;;;;;;;;;;;;;;;19.50;39.04;94231.13;5093832;28;1910;-56
2023/12/02 12:29:26;;;;;;;;;;;;;;;19.51;40.29;94240.09;5093765;28;954;-57
2023/12/02 12:31:55;;;;;;;;;;;;;;;19.48;39.58;94245.97;5093742;28;1007;-57
2023/12/02 12:34:21;;;;;;;;;;;;;;;19.34;39.68;94242.72;5093541;28;942;-57
2023/12/02 12:36:48;;;;;;;;;;;;;;;19.44;40.47;94247.53;5093511;28;1029;-57
2023/12/02 12:39:16;;;;;;;;;;;;;;;19.49;39.73;94251.16;5093291;28;1096;-56
2023/12/02 12:41:42;;;;;;;;;;;;;;;19.43;38.65;94251.31;5093657;28;1060;-56
2023/12/02 12:44:08;;;;;;;;;;;;;;;19.40;39.49;94260.72;5093442;28;1092;-56
2023/12/02 12:46:34;;;;;;;;;;;;;;;19.37;40.17;94255.78;5093381;28;1992;-55
2023/12/02 12:49:02;;;;;;;;;;;;;;;19.35;39.07;94257.91;5093674;28;984;-55
2023/12/02 12:51:29;;;;;;;;;;;;;;;19.36;39.19;94264.16;5093226;28;1045;-56
2023/12/02 12:54:05;;;;;;;;;;;;;;;19.35;39.74;94257.91;5089894;28;1287;-56
2023/12/02 12:56:33;;;;;;;;;;;;;;;19.37;41.31;94252.25;5073279;28;1060;-56
2023/12/02 12:59:00;;;;;;;;;;;;;;;19.33;41.39;94248.38;5072812;28;1240;-56
2023/12/02 13:01:27;;;;;;;;;;;;;;;19.34;41.05;94248.13;5073124;28;978;-56
2023/12/02 13:04:17;;;;;;;;;;;;;;;19.33;40.84;94260.06;5073149;28;1064;-57
2023/12/02 13:06:47;;;;;;;;;;;;;;;19.16;39.03;94264.50;5064870;28;1905;-57